sensor_id;sensor_type;location;lat;lon;timestamp;temperature;humidity
16060;DHT22;8134;49.552;7.632;2022-07-23T14:03:59;29.20;78.20
16060;DHT22;8134;49.552;7.632;2022-07-23T14:06:25;29.40;76.30
16060;DHT22;8134;49.552;7.632;2022-07-23T14:08:50;29.50;76.40
16060;DHT22;8134;49.552;7.632;2022-07-23T14:11:16;29.60;74.80
16060;DHT22;8134;49.552;7.632;2022-07-23T14:13:41;30.20;75.00
16060;DHT22;8134;49.552;7.632;2022-07-23T14:16:07;29.90;72.70
16060;DHT22;8134;49.552;7.632;2022-07-23T14:18:32;29.60;72.60
16060;DHT22;8134;49.552;7.632;2022-07-23T14:20:58;29.60;71.00
16060;DHT22;8134;49.552;7.632;2022-07-23T14:23:23;29.40;72.50
16060;DHT22;8134;49.552;7.632;2022-07-23T14:25:49;29.20;72.80
16060;DHT22;8134;49.552;7.632;2022-07-23T14:28:14;29.20;72.30
16060;DHT22;8134;49.552;7.632;2022-07-23T14:30:40;29.00;73.20
16060;DHT22;8134;49.552;7.632;2022-07-23T14:33:05;29.00;72.70
16060;DHT22;8134;49.552;7.632;2022-07-23T14:35:31;29.10;71.60
16060;DHT22;8134;49.552;7.632;2022-07-23T14:37:56;29.30;71.50
16060;DHT22;8134;49.552;7.632;2022-07-23T14:40:22;29.40;74.00
16060;DHT22;8134;49.552;7.632;2022-07-23T14:42:47;29.60;72.90
16060;DHT22;8134;49.552;7.632;2022-07-23T14:45:13;29.70;73.60
16060;DHT22;8134;49.552;7.632;2022-07-23T14:47:38;29.80;72.50
16060;DHT22;8134;49.552;7.632;2022-07-23T14:50:04;29.80;73.50
16060;DHT22;8134;49.552;7.632;2022-07-23T14:52:30;29.70;71.60
16060;DHT22;8134;49.552;7.632;2022-07-23T14:54:55;29.50;71.40
16060;DHT22;8134;49.552;7.632;2022-07-23T14:57:21;29.30;73.70
16060;DHT22;8134;49.552;7.632;2022-07-23T14:59:46;29.10;70.90
16060;DHT22;8134;49.552;7.632;2022-07-23T15:02:12;29.00;71.60
16060;DHT22;8134;49.552;7.632;2022-07-23T15:04:38;28.80;72.60
16060;DHT22;8134;49.552;7.632;2022-07-23T15:07:04;28.60;72.80
16060;DHT22;8134;49.552;7.632;2022-07-23T15:09:29;28.50;72.60
16060;DHT22;8134;49.552;7.632;2022-07-23T15:11:55;28.40;72.20
16060;DHT22;8134;49.552;7.632;2022-07-23T15:14:20;28.30;72.90
16060;DHT22;8134;49.552;7.632;2022-07-23T15:16:47;28.20;72.90
16060;DHT22;8134;49.552;7.632;2022-07-23T15:19:12;28.20;73.20
16060;DHT22;8134;49.552;7.632;2022-07-23T15:21:38;28.20;73.40
16060;DHT22;8134;49.552;7.632;2022-07-23T15:24:03;28.20;72.60
16060;DHT22;8134;49.552;7.632;2022-07-23T15:26:29;28.50;72.60
16060;DHT22;8134;49.552;7.632;2022-07-23T15:28:55;28.70;72.40
16060;DHT22;8134;49.552;7.632;2022-07-23T15:31:21;28.90;71.70
16060;DHT22;8134;49.552;7.632;2022-07-23T15:33:47;29.10;72.10
16060;DHT22;8134;49.552;7.632;2022-07-23T15:36:12;29.20;70.40
16060;DHT22;8134;49.552;7.632;2022-07-23T15:38:38;29.30;70.50
16060;DHT22;8134;49.552;7.632;2022-07-23T15:41:04;29.40;69.70
16060;DHT22;8134;49.552;7.632;2022-07-23T15:43:29;29.50;71.50
16060;DHT22;8134;49.552;7.632;2022-07-23T15:45:55;29.50;71.70
16060;DHT22;8134;49.552;7.632;2022-07-23T15:48:21;29.40;69.90
16060;DHT22;8134;49.552;7.632;2022-07-23T15:50:47;29.30;69.90
16060;DHT22;8134;49.552;7.632;2022-07-23T15:53:12;29.00;68.60
16060;DHT22;8134;49.552;7.632;2022-07-23T15:55:38;29.00;70.90
16060;DHT22;8134;49.552;7.632;2022-07-23T15:58:04;28.90;70.20
16060;DHT22;8134;49.552;7.632;2022-07-23T16:00:30;29.00;71.40
16060;DHT22;8134;49.552;7.632;2022-07-23T16:02:56;29.00;70.80
16060;DHT22;8134;49.552;7.632;2022-07-23T16:05:21;28.80;70.30
16060;DHT22;8134;49.552;7.632;2022-07-23T16:07:57;28.60;72.10
16060;DHT22;8134;49.552;7.632;2022-07-23T16:10:23;28.70;72.00
16060;DHT22;8134;49.552;7.632;2022-07-23T16:12:48;28.70;72.00
16060;DHT22;8134;49.552;7.632;2022-07-23T16:15:14;28.90;72.40
16060;DHT22;8134;49.552;7.632;2022-07-23T16:17:40;29.00;71.80
16060;DHT22;8134;49.552;7.632;2022-07-23T16:20:05;29.00;71.70
16060;DHT22;8134;49.552;7.632;2022-07-23T16:22:34;28.90;69.30
16060;DHT22;8134;49.552;7.632;2022-07-23T16:25:00;28.80;70.50
16060;DHT22;8134;49.552;7.632;2022-07-23T16:27:26;28.80;72.10
16060;DHT22;8134;49.552;7.632;2022-07-23T16:29:51;28.90;72.20
16060;DHT22;8134;49.552;7.632;2022-07-23T16:32:17;28.90;72.20
16060;DHT22;8134;49.552;7.632;2022-07-23T16:34:43;28.90;71.80
16060;DHT22;8134;49.552;7.632;2022-07-23T16:37:09;28.90;72.70
16060;DHT22;8134;49.552;7.632;2022-07-23T16:39:35;28.80;72.30
16060;DHT22;8134;49.552;7.632;2022-07-23T16:42:00;28.70;70.40
16060;DHT22;8134;49.552;7.632;2022-07-23T16:44:26;28.70;70.50
16060;DHT22;8134;49.552;7.632;2022-07-23T16:46:51;28.60;72.60
16060;DHT22;8134;49.552;7.632;2022-07-23T16:49:17;28.60;70.10
16060;DHT22;8134;49.552;7.632;2022-07-23T16:51:42;28.70;70.40
16060;DHT22;8134;49.552;7.632;2022-07-23T16:54:08;28.70;69.70
16060;DHT22;8134;49.552;7.632;2022-07-23T16:56:33;28.60;69.10
16060;DHT22;8134;49.552;7.632;2022-07-23T16:58:59;28.50;69.90
16060;DHT22;8134;49.552;7.632;2022-07-23T17:01:24;28.50;70.20
16060;DHT22;8134;49.552;7.632;2022-07-23T17:03:50;28.50;71.20
16060;DHT22;8134;49.552;7.632;2022-07-23T17:06:15;28.50;71.80
16060;DHT22;8134;49.552;7.632;2022-07-23T17:08:41;28.60;72.10
16060;DHT22;8134;49.552;7.632;2022-07-23T17:11:06;28.60;69.60
16060;DHT22;8134;49.552;7.632;2022-07-23T17:13:32;28.60;70.70
16060;DHT22;8134;49.552;7.632;2022-07-23T17:15:58;28.60;72.70
16060;DHT22;8134;49.552;7.632;2022-07-23T17:18:23;28.60;69.80
16060;DHT22;8134;49.552;7.632;2022-07-23T17:20:50;28.60;70.50
16060;DHT22;8134;49.552;7.632;2022-07-23T17:23:15;28.60;68.90
16060;DHT22;8134;49.552;7.632;2022-07-23T17:25:41;28.70;71.60
16060;DHT22;8134;49.552;7.632;2022-07-23T17:28:07;28.60;69.30
16060;DHT22;8134;49.552;7.632;2022-07-23T17:30:32;28.60;69.50
16060;DHT22;8134;49.552;7.632;2022-07-23T17:32:58;28.60;69.60
16060;DHT22;8134;49.552;7.632;2022-07-23T17:35:24;28.50;72.10
16060;DHT22;8134;49.552;7.632;2022-07-23T17:37:49;28.60;74.10
16060;DHT22;8134;49.552;7.632;2022-07-23T17:40:15;28.60;73.30
16060;DHT22;8134;49.552;7.632;2022-07-23T17:42:40;28.60;72.20
16060;DHT22;8134;49.552;7.632;2022-07-23T17:45:06;28.60;73.10
16060;DHT22;8134;49.552;7.632;2022-07-23T17:47:32;28.60;72.40
16060;DHT22;8134;49.552;7.632;2022-07-23T17:49:58;28.50;74.20
16060;DHT22;8134;49.552;7.632;2022-07-23T17:52:24;28.50;74.90
16060;DHT22;8134;49.552;7.632;2022-07-23T17:54:50;28.50;76.30
16060;DHT22;8134;49.552;7.632;2022-07-23T17:57:15;28.40;77.20
16060;DHT22;8134;49.552;7.632;2022-07-23T17:59:41;28.40;77.90
16060;DHT22;8134;49.552;7.632;2022-07-23T18:02:06;28.30;79.00
16060;DHT22;8134;49.552;7.632;2022-07-23T18:04:32;28.30;79.10
16060;DHT22;8134;49.552;7.632;2022-07-23T18:06:57;28.20;80.10
16060;DHT22;8134;49.552;7.632;2022-07-23T18:09:24;28.10;80.60
16060;DHT22;8134;49.552;7.632;2022-07-23T18:11:49;28.00;80.90
16060;DHT22;8134;49.552;7.632;2022-07-23T18:14:15;28.00;81.40
16060;DHT22;8134;49.552;7.632;2022-07-23T18:16:40;27.90;81.80
16060;DHT22;8134;49.552;7.632;2022-07-23T18:19:06;27.80;81.80
16060;DHT22;8134;49.552;7.632;2022-07-23T18:21:32;27.80;83.00
16060;DHT22;8134;49.552;7.632;2022-07-23T18:23:58;27.70;82.70
16060;DHT22;8134;49.552;7.632;2022-07-23T18:26:24;27.60;76.30
16060;DHT22;8134;49.552;7.632;2022-07-23T18:28:50;27.60;78.80
16060;DHT22;8134;49.552;7.632;2022-07-23T18:31:16;27.50;76.80
16060;DHT22;8134;49.552;7.632;2022-07-23T18:33:42;27.40;74.70
16060;DHT22;8134;49.552;7.632;2022-07-23T18:39:11;27.40;79.30
16060;DHT22;8134;49.552;7.632;2022-07-23T18:41:37;27.30;78.40
16060;DHT22;8134;49.552;7.632;2022-07-23T18:44:04;27.20;80.30
16060;DHT22;8134;49.552;7.632;2022-07-23T18:46:29;27.10;80.30
16060;DHT22;8134;49.552;7.632;2022-07-23T18:48:56;26.90;78.70
16060;DHT22;8134;49.552;7.632;2022-07-23T18:51:23;26.90;79.00
16060;DHT22;8134;49.552;7.632;2022-07-23T18:53:51;26.70;77.30
16060;DHT22;8134;49.552;7.632;2022-07-23T18:56:16;26.60;81.50
16060;DHT22;8134;49.552;7.632;2022-07-23T18:58:42;26.50;82.10
16060;DHT22;8134;49.552;7.632;2022-07-23T19:19:09;24.90;86.40
16060;DHT22;8134;49.552;7.632;2022-07-23T19:21:39;24.60;88.00
16060;DHT22;8134;49.552;7.632;2022-07-23T19:24:06;24.50;87.50
16060;DHT22;8134;49.552;7.632;2022-07-23T19:26:33;24.50;88.20
16060;DHT22;8134;49.552;7.632;2022-07-23T19:29:00;24.40;88.20
16060;DHT22;8134;49.552;7.632;2022-07-23T19:31:26;24.40;88.60
16060;DHT22;8134;49.552;7.632;2022-07-23T19:33:52;24.40;87.80
16060;DHT22;8134;49.552;7.632;2022-07-23T19:36:17;24.40;87.60
16060;DHT22;8134;49.552;7.632;2022-07-23T19:38:45;24.40;88.00
16060;DHT22;8134;49.552;7.632;2022-07-23T19:41:12;24.30;87.40
16060;DHT22;8134;49.552;7.632;2022-07-23T19:43:37;24.30;87.30
16060;DHT22;8134;49.552;7.632;2022-07-23T19:46:03;24.30;87.70
16060;DHT22;8134;49.552;7.632;2022-07-23T19:48:29;24.30;88.10
16060;DHT22;8134;49.552;7.632;2022-07-23T19:50:56;24.30;87.70
16060;DHT22;8134;49.552;7.632;2022-07-23T19:53:21;24.30;88.40
16060;DHT22;8134;49.552;7.632;2022-07-23T19:55:47;24.30;88.00
16060;DHT22;8134;49.552;7.632;2022-07-23T19:58:12;24.30;88.10
16060;DHT22;8134;49.552;7.632;2022-07-23T20:00:39;24.30;88.10
16060;DHT22;8134;49.552;7.632;2022-07-23T20:03:05;24.20;88.00
16060;DHT22;8134;49.552;7.632;2022-07-23T20:05:30;24.20;88.00
16060;DHT22;8134;49.552;7.632;2022-07-23T20:07:56;24.20;88.40
16060;DHT22;8134;49.552;7.632;2022-07-23T20:10:21;24.20;88.60
16060;DHT22;8134;49.552;7.632;2022-07-23T20:12:47;24.20;88.30
16060;DHT22;8134;49.552;7.632;2022-07-23T20:15:13;24.20;88.70
16060;DHT22;8134;49.552;7.632;2022-07-23T20:17:39;24.20;88.80
16060;DHT22;8134;49.552;7.632;2022-07-23T20:20:05;24.20;88.80
16060;DHT22;8134;49.552;7.632;2022-07-23T20:22:31;24.20;89.00
16060;DHT22;8134;49.552;7.632;2022-07-23T20:24:56;24.20;89.00
16060;DHT22;8134;49.552;7.632;2022-07-23T20:27:22;24.10;89.40
16060;DHT22;8134;49.552;7.632;2022-07-23T20:29:48;24.10;89.20
16060;DHT22;8134;49.552;7.632;2022-07-23T20:32:13;24.00;88.60
16060;DHT22;8134;49.552;7.632;2022-07-23T20:34:39;24.00;89.30
16060;DHT22;8134;49.552;7.632;2022-07-23T20:37:05;23.80;89.50
16060;DHT22;8134;49.552;7.632;2022-07-23T20:39:30;23.80;89.60
16060;DHT22;8134;49.552;7.632;2022-07-23T20:41:56;23.70;89.50
16060;DHT22;8134;49.552;7.632;2022-07-23T20:44:22;23.70;89.80
16060;DHT22;8134;49.552;7.632;2022-07-23T20:46:48;23.80;90.10
16060;DHT22;8134;49.552;7.632;2022-07-23T20:49:14;23.80;89.90
16060;DHT22;8134;49.552;7.632;2022-07-23T20:51:43;23.80;90.00
16060;DHT22;8134;49.552;7.632;2022-07-23T20:54:09;23.80;90.10
16060;DHT22;8134;49.552;7.632;2022-07-23T20:56:34;23.80;90.10
16060;DHT22;8134;49.552;7.632;2022-07-23T20:59:00;23.80;90.30
16060;DHT22;8134;49.552;7.632;2022-07-23T21:01:25;23.80;90.40
16060;DHT22;8134;49.552;7.632;2022-07-23T21:03:51;23.80;90.50
16060;DHT22;8134;49.552;7.632;2022-07-23T21:06:17;23.80;90.30
16060;DHT22;8134;49.552;7.632;2022-07-23T21:08:43;23.80;90.50
16060;DHT22;8134;49.552;7.632;2022-07-23T21:11:08;23.80;90.30
16060;DHT22;8134;49.552;7.632;2022-07-23T21:13:34;23.80;90.50
16060;DHT22;8134;49.552;7.632;2022-07-23T21:16:00;23.80;90.70
16060;DHT22;8134;49.552;7.632;2022-07-23T21:18:25;23.80;90.40
16060;DHT22;8134;49.552;7.632;2022-07-23T21:20:51;23.70;90.50
16060;DHT22;8134;49.552;7.632;2022-07-23T21:23:40;23.70;90.60
16060;DHT22;8134;49.552;7.632;2022-07-23T21:26:07;23.70;90.60
16060;DHT22;8134;49.552;7.632;2022-07-23T21:28:33;23.60;90.60
16060;DHT22;8134;49.552;7.632;2022-07-23T21:30:58;23.60;90.90
16060;DHT22;8134;49.552;7.632;2022-07-23T21:33:24;23.50;90.70
16060;DHT22;8134;49.552;7.632;2022-07-23T21:35:50;23.50;90.60
16060;DHT22;8134;49.552;7.632;2022-07-23T21:38:15;23.40;90.70
16060;DHT22;8134;49.552;7.632;2022-07-23T21:40:41;23.30;90.50
16060;DHT22;8134;49.552;7.632;2022-07-23T21:43:07;23.20;90.70
16060;DHT22;8134;49.552;7.632;2022-07-23T21:45:32;23.20;90.80
16060;DHT22;8134;49.552;7.632;2022-07-23T21:47:58;23.10;90.80
16060;DHT22;8134;49.552;7.632;2022-07-23T21:50:24;23.10;90.90
16060;DHT22;8134;49.552;7.632;2022-07-23T21:52:49;23.00;90.80
16060;DHT22;8134;49.552;7.632;2022-07-23T21:55:15;23.00;90.70
16060;DHT22;8134;49.552;7.632;2022-07-23T21:57:41;22.90;90.80
16060;DHT22;8134;49.552;7.632;2022-07-23T22:00:10;22.80;90.80
